createdAt,value
2018-02-09T00:00:28.779Z,37.53
2018-02-09T00:02:56.177Z,38.30
2018-02-09T00:05:23.574Z,37.97
2018-02-09T00:07:50.989Z,37.70
2018-02-09T00:10:18.379Z,38.20
2018-02-09T00:12:45.816Z,36.17
2018-02-09T00:15:13.210Z,38.10
2018-02-09T00:17:40.631Z,36.30
2018-02-09T00:20:08.078Z,36.30
2018-02-09T00:22:47.613Z,39.60
2018-02-09T00:25:15.074Z,37.30
2018-02-09T00:27:42.473Z,36.53
2018-02-09T00:30:09.977Z,38.57
2018-02-09T00:32:37.386Z,37.37
2018-02-09T00:35:04.786Z,35.77
2018-02-09T00:37:32.174Z,37.73
2018-02-09T00:39:59.582Z,36.00
2018-02-09T00:42:27.054Z,39.00
2018-02-09T00:44:54.466Z,36.30
2018-02-09T00:47:21.890Z,39.03
2018-02-09T00:49:49.296Z,39.17
2018-02-09T00:52:16.692Z,35.93
2018-02-09T00:54:44.126Z,36.70
2018-02-09T00:57:11.529Z,37.37
2018-02-09T00:59:38.948Z,36.97
2018-02-09T01:02:06.403Z,36.80
2018-02-09T01:04:33.807Z,34.77
2018-02-09T01:07:01.207Z,36.53
2018-02-09T01:09:28.614Z,34.23
2018-02-09T01:11:56.027Z,37.83
2018-02-09T01:14:23.447Z,35.93
2018-02-09T01:16:50.843Z,36.27
2018-02-09T01:19:18.250Z,34.23
2018-02-09T01:21:45.647Z,34.67
2018-02-09T01:24:13.075Z,34.03
2018-02-09T01:26:40.555Z,34.70
2018-02-09T01:29:07.963Z,34.83
2018-02-09T01:31:35.355Z,36.63
2018-02-09T01:34:02.842Z,37.23
2018-02-09T01:36:30.238Z,31.67
2018-02-09T01:38:57.710Z,35.37
2018-02-09T01:41:25.103Z,34.17
2018-02-09T01:43:52.515Z,35.00
2018-02-09T01:46:19.907Z,35.27
2018-02-09T01:48:47.336Z,34.80
2018-02-09T01:51:14.726Z,34.17
2018-02-09T01:53:42.134Z,36.23
2018-02-09T01:56:09.600Z,36.23
2018-02-09T01:58:37.002Z,35.83
2018-02-09T02:01:04.405Z,35.87
2018-02-09T02:03:31.864Z,36.70
2018-02-09T02:05:59.254Z,36.97
2018-02-09T02:08:26.665Z,37.07
2018-02-09T02:10:54.054Z,37.60
2018-02-09T02:13:21.468Z,33.63
2018-02-09T02:15:48.934Z,39.10
2018-02-09T02:18:16.341Z,35.30
2018-02-09T02:20:43.802Z,38.20
2018-02-09T02:23:11.206Z,35.20
2018-02-09T02:25:38.658Z,34.27
2018-02-09T02:28:06.065Z,37.20
2018-02-09T02:30:33.473Z,36.23
2018-02-09T02:33:00.866Z,37.73
2018-02-09T02:35:28.265Z,36.77
2018-02-09T02:37:55.663Z,34.90
2018-02-09T02:40:23.075Z,35.27
2018-02-09T02:42:50.527Z,33.90
2018-02-09T02:45:17.955Z,36.23
2018-02-09T02:47:45.361Z,35.90
2018-02-09T02:50:12.754Z,36.97
2018-02-09T02:52:40.167Z,35.63
2018-02-09T02:55:07.562Z,34.70
2018-02-09T02:57:34.954Z,36.67
2018-02-09T03:00:02.365Z,34.60
2018-02-09T03:02:29.754Z,36.20
2018-02-09T03:04:57.154Z,33.47
2018-02-09T03:07:24.582Z,36.27
2018-02-09T03:09:51.997Z,34.77
2018-02-09T03:12:19.693Z,35.87
2018-02-09T03:14:47.105Z,34.37
2018-02-09T03:17:14.490Z,36.30
2018-02-09T03:19:42.030Z,38.10
2018-02-09T03:22:09.446Z,35.60
2018-02-09T03:24:36.850Z,36.17
2018-02-09T03:27:04.242Z,35.33
2018-02-09T03:29:31.651Z,35.37
2018-02-09T03:31:59.106Z,36.10
2018-02-09T03:34:26.527Z,32.90
2018-02-09T03:36:54.007Z,35.77
2018-02-09T03:39:21.466Z,38.00
2018-02-09T03:41:48.871Z,38.10
2018-02-09T03:44:16.283Z,35.43
2018-02-09T03:46:43.666Z,35.27
2018-02-09T03:49:11.083Z,35.17
2018-02-09T03:51:38.475Z,36.67
2018-02-09T03:54:05.915Z,38.13
2018-02-09T03:56:33.334Z,36.57
2018-02-09T03:59:00.742Z,37.60
2018-02-09T04:01:28.142Z,39.45
2018-02-09T04:03:55.627Z,36.47
2018-02-09T04:06:23.043Z,33.80
2018-02-09T04:08:50.541Z,35.70
2018-02-09T04:11:17.952Z,36.53
2018-02-09T04:13:45.350Z,37.30
2018-02-09T04:16:12.758Z,34.50
2018-02-09T04:18:40.161Z,35.17
2018-02-09T04:21:07.609Z,37.50
2018-02-09T04:23:35.062Z,35.47
2018-02-09T04:26:02.476Z,37.10
2018-02-09T04:28:29.866Z,37.30
2018-02-09T04:30:57.272Z,36.47
2018-02-09T04:33:24.683Z,36.30
2018-02-09T04:35:52.097Z,36.17
2018-02-09T04:38:19.491Z,36.97
2018-02-09T04:40:46.946Z,35.53
2018-02-09T04:43:14.348Z,33.37
2018-02-09T04:45:41.751Z,37.50
2018-02-09T04:48:09.141Z,39.30
2018-02-09T04:50:36.541Z,35.83
2018-02-09T04:53:03.941Z,37.60
2018-02-09T04:55:31.338Z,37.57
2018-02-09T04:57:58.729Z,37.40
2018-02-09T05:00:26.151Z,36.53
2018-02-09T05:02:53.538Z,37.37
2018-02-09T05:05:20.946Z,37.40
2018-02-09T05:07:48.342Z,38.03
2018-02-09T05:10:15.759Z,34.83
2018-02-09T05:12:43.154Z,35.60
2018-02-09T05:15:10.611Z,35.00
2018-02-09T05:17:38.066Z,36.60
2018-02-09T05:20:05.471Z,35.57
2018-02-09T05:22:32.861Z,35.30
2018-02-09T05:25:00.262Z,35.47
2018-02-09T05:27:27.702Z,35.83
2018-02-09T05:29:55.143Z,36.10
2018-02-09T05:32:22.542Z,32.33
2018-02-09T05:34:49.937Z,34.23
2018-02-09T05:37:17.339Z,34.30
2018-02-09T05:39:44.737Z,33.63
2018-02-09T05:42:12.135Z,32.77
2018-02-09T05:44:39.533Z,33.60
2018-02-09T05:47:07.039Z,34.47
2018-02-09T05:49:34.441Z,36.53
2018-02-09T05:52:01.849Z,37.97
2018-02-09T05:54:29.292Z,37.60
2018-02-09T05:56:56.685Z,35.30
2018-02-09T05:59:24.078Z,36.80
2018-02-09T06:01:51.567Z,36.73
2018-02-09T06:04:19.020Z,36.97
2018-02-09T06:06:46.466Z,35.00
2018-02-09T06:09:13.861Z,38.83
2018-02-09T06:11:41.270Z,36.23
2018-02-09T06:14:08.675Z,34.87
2018-02-09T06:16:36.122Z,39.10
2018-02-09T06:19:03.519Z,38.77
2018-02-09T06:21:30.956Z,35.80
2018-02-09T06:23:58.343Z,38.90
2018-02-09T06:26:25.763Z,36.17
2018-02-09T06:28:53.277Z,36.80
2018-02-09T06:31:20.731Z,37.80
2018-02-09T06:33:48.123Z,39.37
2018-02-09T06:36:15.517Z,38.23
2018-02-09T06:38:42.910Z,39.50
2018-02-09T06:41:10.326Z,42.27
2018-02-09T06:43:37.718Z,38.13
2018-02-09T06:46:05.122Z,39.00
2018-02-09T06:48:32.519Z,38.07
2018-02-09T06:50:59.931Z,37.80
2018-02-09T06:53:27.335Z,35.93
2018-02-09T06:55:54.730Z,36.47
2018-02-09T06:58:22.130Z,38.20
2018-02-09T07:00:49.532Z,36.80
2018-02-09T07:03:17.027Z,37.83
2018-02-09T07:05:44.430Z,37.13
2018-02-09T07:08:11.831Z,37.30
2018-02-09T07:10:39.238Z,35.70
2018-02-09T07:13:06.630Z,37.70
2018-02-09T07:15:34.030Z,36.40
2018-02-09T07:18:01.422Z,33.47
2018-02-09T07:20:28.854Z,39.23
2018-02-09T07:22:56.245Z,39.10
2018-02-09T07:25:23.649Z,37.67
2018-02-09T07:27:51.045Z,37.70
2018-02-09T07:30:18.443Z,37.80
2018-02-09T07:32:45.878Z,37.40
2018-02-09T07:35:13.338Z,35.40
2018-02-09T07:37:40.735Z,38.33
2018-02-09T07:40:08.138Z,36.43
2018-02-09T07:42:35.602Z,35.07
2018-02-09T07:45:02.997Z,37.53
2018-02-09T07:47:30.393Z,36.23
2018-02-09T07:49:57.786Z,37.40
2018-02-09T07:52:25.270Z,36.97
2018-02-09T07:54:52.623Z,34.47
2018-02-09T07:57:20.026Z,35.77
2018-02-09T07:59:47.422Z,38.03
2018-02-09T08:02:14.827Z,33.30
2018-02-09T08:04:42.220Z,36.47
2018-02-09T08:07:09.614Z,37.40
2018-02-09T08:09:37.027Z,38.60
2018-02-09T08:12:04.423Z,36.80
2018-02-09T08:14:31.814Z,35.23
2018-02-09T08:16:59.949Z,37.20
2018-02-09T08:19:27.438Z,36.60
2018-02-09T08:21:54.839Z,38.57
2018-02-09T08:24:22.280Z,36.10
2018-02-09T08:26:49.626Z,37.07
2018-02-09T08:29:17.021Z,37.93
2018-02-09T08:31:44.513Z,38.37
2018-02-09T08:34:11.903Z,36.77
2018-02-09T08:36:39.300Z,40.93
2018-02-09T08:39:06.690Z,39.40
2018-02-09T08:41:34.091Z,38.33
2018-02-09T08:44:01.477Z,39.77
2018-02-09T08:46:28.878Z,39.63
2018-02-09T08:48:56.282Z,37.80
2018-02-09T08:51:24.546Z,36.43
2018-02-09T08:53:51.926Z,43.67
2018-02-09T08:56:19.349Z,40.10
2018-02-09T08:58:46.744Z,42.63
2018-02-09T09:01:14.146Z,41.60
2018-02-09T09:03:41.543Z,41.50
2018-02-09T09:06:08.934Z,42.30
2018-02-09T09:08:36.329Z,44.17
2018-02-09T09:11:03.812Z,40.83
2018-02-09T09:13:31.223Z,45.13
2018-02-09T09:15:58.608Z,43.17
2018-02-09T09:18:26.010Z,40.73
2018-02-09T09:20:53.402Z,40.17
2018-02-09T09:23:20.795Z,41.80
2018-02-09T09:25:48.186Z,43.00
2018-02-09T09:28:15.586Z,43.43
2018-02-09T09:30:42.982Z,47.73
2018-02-09T09:33:10.378Z,45.67
2018-02-09T09:35:37.769Z,44.17
2018-02-09T09:38:05.169Z,45.07
2018-02-09T09:40:32.565Z,44.00
2018-02-09T09:42:59.958Z,39.63
2018-02-09T09:45:27.346Z,42.73
2018-02-09T09:47:54.748Z,45.07
2018-02-09T09:50:22.700Z,42.57
2018-02-09T09:52:50.085Z,43.67
2018-02-09T09:55:17.478Z,43.80
2018-02-09T09:57:44.883Z,43.77
2018-02-09T10:00:12.266Z,43.90
2018-02-09T10:02:40.458Z,42.67
2018-02-09T10:05:07.841Z,45.10
2018-02-09T10:07:35.258Z,39.10
2018-02-09T10:10:02.629Z,45.03
2018-02-09T10:12:30.031Z,43.70
2018-02-09T10:14:57.425Z,44.57
2018-02-09T10:17:24.822Z,43.23
2018-02-09T10:19:52.209Z,42.10
2018-02-09T10:22:19.607Z,44.73
2018-02-09T10:24:46.999Z,44.40
2018-02-09T10:27:14.394Z,43.77
2018-02-09T10:29:41.793Z,44.13
2018-02-09T10:32:09.194Z,45.27
2018-02-09T10:34:36.603Z,43.83
2018-02-09T10:37:03.993Z,43.10
2018-02-09T10:39:31.420Z,41.57
2018-02-09T10:41:58.869Z,43.67
2018-02-09T10:44:26.261Z,43.23
2018-02-09T10:46:53.658Z,42.80
2018-02-09T10:49:21.049Z,43.03
2018-02-09T10:51:48.493Z,44.63
2018-02-09T10:54:15.941Z,42.13
2018-02-09T10:56:43.340Z,44.43
2018-02-09T10:59:10.737Z,43.60
2018-02-09T11:01:38.134Z,41.57
2018-02-09T11:04:05.526Z,44.30
2018-02-09T11:06:33.030Z,44.47
2018-02-09T11:09:00.417Z,46.77
2018-02-09T11:11:27.806Z,45.90
2018-02-09T11:13:55.293Z,47.03
2018-02-09T11:16:22.694Z,46.67
2018-02-09T11:18:50.089Z,44.60
2018-02-09T11:21:17.478Z,44.63
2018-02-09T11:23:44.882Z,43.63
2018-02-09T11:26:12.277Z,45.23
2018-02-09T11:28:39.679Z,45.13
2018-02-09T11:31:07.066Z,44.33
2018-02-09T11:33:35.238Z,49.20
2018-02-09T11:36:02.625Z,42.57
2018-02-09T11:38:30.029Z,44.60
2018-02-09T11:40:57.414Z,46.37
2018-02-09T11:43:24.809Z,44.43
2018-02-09T11:45:52.209Z,42.77
2018-02-09T11:48:19.685Z,45.70
2018-02-09T11:50:47.077Z,46.53
2018-02-09T11:53:14.487Z,51.70
2018-02-09T11:55:41.964Z,45.00
2018-02-09T11:58:09.354Z,44.47
2018-02-09T12:00:36.750Z,46.03
2018-02-09T12:03:04.147Z,46.07
2018-02-09T12:05:31.538Z,44.17
2018-02-09T12:07:58.944Z,44.60
2018-02-09T12:10:26.351Z,47.47
2018-02-09T12:12:53.730Z,47.90
2018-02-09T12:15:21.178Z,45.67
2018-02-09T12:17:48.590Z,46.27
2018-02-09T12:20:15.978Z,46.17
2018-02-09T12:22:43.376Z,45.07
2018-02-09T12:25:10.771Z,48.77
2018-02-09T12:27:38.173Z,45.60
2018-02-09T12:30:05.626Z,49.27
2018-02-09T12:32:33.056Z,43.87
2018-02-09T12:35:00.446Z,44.73
2018-02-09T12:37:27.847Z,44.77
2018-02-09T12:39:55.234Z,43.70
2018-02-09T12:42:22.631Z,44.90
2018-02-09T12:44:50.015Z,44.00
2018-02-09T12:47:17.414Z,43.83
2018-02-09T12:49:44.873Z,46.47
2018-02-09T12:52:12.334Z,41.73
2018-02-09T12:54:39.738Z,46.10
2018-02-09T12:57:07.141Z,46.10
2018-02-09T12:59:34.538Z,42.33
2018-02-09T13:02:01.930Z,45.50
2018-02-09T13:04:29.327Z,42.40
2018-02-09T13:06:56.770Z,46.30
2018-02-09T13:09:24.170Z,41.60
2018-02-09T13:11:51.570Z,45.00
2018-02-09T13:14:30.822Z,44.40
2018-02-09T13:16:58.214Z,42.53
2018-02-09T13:19:25.619Z,44.97
2018-02-09T13:21:53.003Z,46.00
2018-02-09T13:24:21.966Z,47.10
2018-02-09T13:26:49.354Z,42.93
2018-02-09T13:29:16.789Z,43.60
2018-02-09T13:31:44.246Z,40.50
2018-02-09T13:34:11.718Z,45.23
2018-02-09T13:39:39.980Z,44.30
2018-02-09T13:42:07.365Z,44.23
2018-02-09T13:44:34.762Z,43.77
2018-02-09T13:47:02.153Z,44.37
2018-02-09T13:49:29.549Z,45.70
2018-02-09T13:51:56.956Z,44.27
2018-02-09T13:54:24.351Z,42.70
2018-02-09T13:56:51.746Z,46.30
2018-02-09T13:59:19.142Z,39.67
2018-02-09T14:01:46.543Z,37.73
2018-02-09T14:04:13.942Z,41.63
2018-02-09T14:06:41.330Z,42.13
2018-02-09T14:09:08.726Z,38.57
2018-02-09T14:11:36.116Z,33.47
2018-02-09T14:14:03.510Z,39.97
2018-02-09T14:16:30.932Z,40.77
2018-02-09T14:18:58.329Z,37.93
2018-02-09T14:21:25.734Z,40.53
2018-02-09T14:23:53.279Z,39.30
2018-02-09T14:26:20.682Z,38.57
2018-02-09T14:28:48.066Z,38.87
2018-02-09T14:31:15.463Z,38.07
2018-02-09T14:33:42.855Z,40.07
2018-02-09T14:36:10.257Z,39.33
2018-02-09T14:38:37.645Z,37.30
2018-02-09T14:41:05.081Z,37.87
2018-02-09T14:43:32.478Z,37.00
2018-02-09T14:45:59.877Z,40.57
2018-02-09T14:48:27.264Z,37.50
2018-02-09T14:50:54.670Z,38.33
2018-02-09T14:53:22.059Z,35.63
2018-02-09T14:55:49.457Z,38.37
2018-02-09T14:58:16.886Z,38.70
2018-02-09T15:00:44.287Z,38.90
2018-02-09T15:03:11.699Z,39.23
2018-02-09T15:05:39.103Z,39.57
2018-02-09T15:08:06.497Z,39.50
2018-02-09T15:10:33.904Z,38.57
2018-02-09T15:13:01.290Z,37.40
2018-02-09T15:15:28.690Z,38.30
2018-02-09T15:17:56.088Z,39.37
2018-02-09T15:20:23.575Z,39.97
2018-02-09T15:22:51.033Z,40.97
2018-02-09T15:25:18.422Z,39.40
2018-02-09T15:27:45.842Z,41.30
2018-02-09T15:30:13.242Z,41.13
2018-02-09T15:32:40.647Z,39.53
2018-02-09T15:35:08.039Z,40.27
2018-02-09T15:37:35.431Z,44.30
2018-02-09T15:40:02.832Z,44.03
2018-02-09T15:42:30.221Z,43.90
2018-02-09T15:44:57.613Z,41.93
2018-02-09T15:47:25.094Z,43.47
2018-02-09T15:49:52.487Z,41.60
2018-02-09T15:52:19.898Z,43.03
2018-02-09T15:54:47.346Z,45.77
2018-02-09T15:57:14.733Z,45.70
2018-02-09T15:59:42.134Z,44.10
2018-02-09T16:02:09.737Z,46.57
2018-02-09T16:04:37.109Z,45.97
2018-02-09T16:07:04.498Z,46.13
2018-02-09T16:09:31.885Z,43.27
2018-02-09T16:11:59.346Z,44.90
2018-02-09T16:14:26.743Z,44.10
2018-02-09T16:16:54.137Z,46.90
2018-02-09T16:19:21.542Z,42.80
2018-02-09T16:21:48.931Z,45.90
2018-02-09T16:24:16.424Z,44.60
2018-02-09T16:26:43.835Z,48.23
2018-02-09T16:29:11.226Z,48.13
2018-02-09T16:31:38.691Z,48.47
2018-02-09T16:34:06.160Z,43.77
2018-02-09T16:36:33.534Z,45.40
2018-02-09T16:39:00.942Z,47.20
2018-02-09T16:41:28.334Z,44.97
2018-02-09T16:43:55.783Z,47.40
2018-02-09T16:46:23.186Z,50.33
2018-02-09T16:48:50.598Z,49.47
2018-02-09T16:51:17.998Z,45.00
2018-02-09T16:53:45.389Z,50.70
2018-02-09T16:56:12.794Z,46.60
2018-02-09T16:58:40.191Z,48.53
2018-02-09T17:01:07.596Z,46.30
2018-02-09T17:03:34.994Z,50.57
2018-02-09T17:06:02.399Z,48.20
2018-02-09T17:08:29.818Z,46.87
2018-02-09T17:10:57.289Z,49.00
2018-02-09T17:13:24.740Z,47.77
2018-02-09T17:15:52.134Z,49.03
2018-02-09T17:18:19.537Z,50.03
2018-02-09T17:20:46.936Z,48.33
2018-02-09T17:23:14.331Z,48.00
2018-02-09T17:25:41.860Z,50.97
2018-02-09T17:28:09.210Z,48.07
2018-02-09T17:30:36.718Z,49.37
2018-02-09T17:33:04.118Z,49.80
2018-02-09T17:35:31.526Z,50.57
2018-02-09T17:37:58.923Z,50.17
2018-02-09T17:40:26.334Z,50.47
2018-02-09T17:42:53.722Z,48.27
2018-02-09T17:45:21.118Z,47.43
2018-02-09T17:47:48.505Z,51.50
2018-02-09T17:50:15.917Z,49.40
2018-02-09T17:52:43.342Z,50.70
2018-02-09T17:55:10.758Z,47.60
2018-02-09T17:57:38.238Z,47.00
2018-02-09T18:00:05.643Z,51.40
2018-02-09T18:02:33.034Z,47.10
2018-02-09T18:05:00.429Z,49.27
2018-02-09T18:07:27.868Z,50.97
2018-02-09T18:09:55.320Z,51.13
2018-02-09T18:12:22.718Z,48.30
2018-02-09T18:14:50.115Z,48.47
2018-02-09T18:17:17.514Z,46.03
2018-02-09T18:19:44.910Z,48.00
2018-02-09T18:22:12.389Z,48.67
2018-02-09T18:24:39.788Z,51.57
2018-02-09T18:27:07.191Z,48.03
2018-02-09T18:29:34.590Z,50.63
2018-02-09T18:32:02.018Z,49.50
2018-02-09T18:34:29.422Z,50.53
2018-02-09T18:36:56.821Z,50.00
2018-02-09T18:39:24.273Z,49.80
2018-02-09T18:44:32.585Z,51.13
2018-02-09T18:46:59.999Z,47.90
2018-02-09T18:49:27.391Z,48.23
2018-02-09T18:51:54.786Z,55.83
2018-02-09T18:54:22.178Z,46.80
2018-02-09T18:56:49.577Z,47.77
2018-02-09T18:59:16.979Z,52.63
2018-02-09T19:01:44.378Z,50.20
2018-02-09T19:04:11.838Z,49.77
2018-02-09T19:06:39.237Z,47.97
2018-02-09T19:09:06.738Z,48.13
2018-02-09T19:11:34.245Z,45.70
2018-02-09T19:14:01.594Z,51.40
2018-02-09T19:16:28.999Z,46.97
2018-02-09T19:18:56.397Z,47.73
2018-02-09T19:21:23.810Z,49.50
2018-02-09T19:23:51.214Z,48.73
2018-02-09T19:26:18.614Z,46.60
2018-02-09T19:28:46.049Z,47.40
2018-02-09T19:31:13.455Z,46.33
2018-02-09T19:33:40.856Z,46.60
2018-02-09T19:36:08.347Z,46.13
2018-02-09T19:38:35.751Z,45.77
2018-02-09T19:41:03.158Z,50.63
2018-02-09T19:43:30.563Z,47.77
2018-02-09T19:45:57.965Z,46.20
2018-02-09T19:48:26.255Z,51.97
2018-02-09T19:50:53.671Z,46.97
2018-02-09T19:53:22.014Z,45.43
2018-02-09T19:55:49.416Z,50.87
2018-02-09T19:58:16.826Z,51.90
2018-02-09T20:00:44.231Z,49.93
2018-02-09T20:03:11.698Z,60.30
2018-02-09T20:05:39.173Z,71.40
2018-02-09T20:08:06.638Z,77.97
2018-02-09T20:10:34.082Z,61.57
2018-02-09T20:13:01.490Z,63.37
2018-02-09T20:15:29.498Z,58.00
2018-02-09T20:17:56.903Z,58.80
2018-02-09T20:20:24.298Z,58.10
2018-02-09T20:22:51.694Z,53.57
2018-02-09T20:25:19.089Z,57.27
2018-02-09T20:27:46.496Z,51.90
2018-02-09T20:30:13.899Z,52.10
2018-02-09T20:32:41.298Z,51.43
2018-02-09T20:35:08.706Z,48.07
2018-02-09T20:37:36.113Z,48.93
2018-02-09T20:40:03.520Z,48.50
2018-02-09T20:42:30.943Z,47.63
2018-02-09T20:44:58.327Z,48.33
2018-02-09T20:47:25.819Z,48.90
2018-02-09T20:49:53.214Z,46.20
2018-02-09T20:52:20.731Z,48.57
2018-02-09T20:54:48.130Z,44.80
2018-02-09T20:57:15.540Z,46.80
2018-02-09T20:59:43.270Z,44.07
2018-02-09T21:02:10.678Z,47.27
2018-02-09T21:04:38.082Z,48.97
2018-02-09T21:07:05.578Z,48.30
2018-02-09T21:09:32.974Z,47.70
2018-02-09T21:12:00.474Z,46.40
2018-02-09T21:14:27.882Z,46.13
2018-02-09T21:16:55.285Z,48.10
2018-02-09T21:19:22.690Z,47.53
2018-02-09T21:21:50.203Z,49.27
2018-02-09T21:24:17.598Z,46.77
2018-02-09T21:26:45.007Z,45.47
2018-02-09T21:29:12.462Z,45.87
2018-02-09T21:31:40.042Z,47.57
2018-02-09T21:34:07.479Z,47.97
2018-02-09T21:36:34.944Z,48.60
2018-02-09T21:39:02.333Z,47.33
2018-02-09T21:41:29.746Z,46.80
2018-02-09T21:43:57.137Z,46.13
2018-02-09T21:46:24.549Z,47.03
2018-02-09T21:48:51.947Z,46.53
2018-02-09T21:51:19.355Z,45.00
2018-02-09T21:53:46.837Z,45.97
2018-02-09T21:56:14.297Z,47.10
2018-02-09T21:58:41.704Z,46.60
2018-02-09T22:01:09.114Z,47.23
2018-02-09T22:03:36.553Z,47.40
2018-02-09T22:06:03.962Z,48.37
2018-02-09T22:08:31.473Z,48.60
2018-02-09T22:10:58.874Z,48.47
2018-02-09T22:13:26.396Z,46.80
2018-02-09T22:15:53.825Z,44.80
2018-02-09T22:18:21.185Z,45.30
2018-02-09T22:20:48.641Z,44.07
2018-02-09T22:23:16.518Z,45.40
2018-02-09T22:25:43.971Z,44.77
2018-02-09T22:28:11.379Z,44.43
2018-02-09T22:30:38.815Z,45.77
2018-02-09T22:33:06.252Z,45.03
2018-02-09T22:35:33.641Z,42.77
2018-02-09T22:38:01.046Z,42.80
2018-02-09T22:40:28.441Z,41.90
2018-02-09T22:42:56.674Z,42.47
2018-02-09T22:45:24.074Z,42.53
2018-02-09T22:47:51.481Z,43.70
2018-02-09T22:50:18.877Z,43.67
2018-02-09T22:52:46.291Z,43.07
2018-02-09T22:55:13.705Z,41.43
2018-02-09T22:57:41.115Z,40.93
2018-02-09T23:00:08.632Z,42.20
2018-02-09T23:02:36.078Z,43.57
2018-02-09T23:05:03.530Z,43.13
2018-02-09T23:07:30.985Z,41.07
2018-02-09T23:09:58.383Z,42.90
2018-02-09T23:12:25.786Z,44.60
2018-02-09T23:14:53.197Z,43.20
2018-02-09T23:17:20.614Z,40.00
2018-02-09T23:19:48.026Z,40.57
2018-02-09T23:22:15.418Z,42.40
2018-02-09T23:24:42.823Z,39.97
2018-02-09T23:27:10.227Z,43.03
2018-02-09T23:29:37.676Z,41.87
2018-02-09T23:32:05.079Z,40.70
2018-02-09T23:34:32.469Z,40.70
2018-02-09T23:36:59.879Z,42.40
2018-02-09T23:39:27.322Z,40.07
2018-02-09T23:41:54.706Z,43.00
2018-02-09T23:44:22.102Z,40.70
2018-02-09T23:46:49.504Z,42.30
2018-02-09T23:49:17.022Z,42.97
2018-02-09T23:51:44.446Z,43.90
2018-02-09T23:54:11.838Z,42.40
2018-02-09T23:56:39.238Z,44.23
2018-02-09T23:59:06.642Z,41.90
